Helmut Schreiber

Recruteur en chef - VfB Stuttgart
2 Déc 2027
Jeudi
Processus

Personnalité

Adaptabilité (1) Ambition (19) Controverse (16) Loyauté (3) Pression (1) Professionnalisme (17) Sportivité (14) Tempérament (5)

Profil

Style d'entraînement Démocratique
Diplôme National A
Détermination 10
Gestion des joueurs 12
Motivation 10
Discipline 14
Satisfaction professionnelle
100%
Fatigue
0%
Rôle Recruteur en chef
Salaire 80.8K p/s
Contrat 14.03.2028

Performance

Comportement Bon
Efficacité de l'entraînement
48%
Développement des joueurs
40%
Prévention des blessures
75%
Mise en place tactique
75%

Événements récents

A participé à une réunion de recrutement maintenant
A recommandé une cible de transfert maintenant
A recommandé une cible de transfert maintenant
A évalué un joueur 7j
A évalué un joueur 7j
A observé un match 7j
A évalué un joueur 7j
A évalué un joueur 7j

Suivi en cours

210
Joueur Club Statut Capacité Confiance Observé Dernière observation Dernier vote
Jofre Torrents Ajax Actif 129 / 140 40% 5 30.11.2027 -
Kevin Vazquez Cruz Azul Actif 136 / 143 40% 16 30.11.2027 -
Esquerdinha Shrewsbury Town Actif 121 / 129 40% 2 30.11.2027 -
Celías Ingenthron Vélez Actif 118 / 127 40% 3 28.11.2027 -
Kauã Moraes Cruzeiro Actif 126 / 127 40% 4 28.11.2027 -
Bahia Criciuma Actif 116 / 126 40% 4 28.11.2027 -
Josh King Chelsea Actif 141 / 148 40% 4 27.11.2027 -
Mads Bomholt Stabaek Actif 113 / 119 40% 10 27.11.2027 -
Josh Nichols Tranmere Rovers Actif 118 / 127 40% 2 27.11.2027 -
Christos Mouzakitis Hull City Actif 138 / 143 40% 13 25.11.2027 -
Luis Otávio Colorado Rapids Actif 114 / 109 40% 4 24.11.2027 -
Nathanaël Mbuku FC Augsburg Actif 133 / 133 42% 1 / 1m 24.11.2027 -
Iván Leszczuk FC Augsburg Actif 111 / 111 30% 1 / 1m 24.11.2027 -
Alejandro Almaraz Nueva Chicago Actif 106 / 121 40% 1 24.11.2027 -
Marc Bernal Real Sociedad Actif 145 / 151 40% 10 22.11.2027 -
Archie Gray Derby County Actif 147 / 153 40% 7 22.11.2027 -
Ayden Heaven Luton Town Actif 145 / 145 40% 14 22.11.2027 -
Noahkai Banks Hamburger SV Actif 138 / 138 40% 5 21.11.2027 -
Honest Ahanor Atalanta Actif 132 / 139 40% 4 21.11.2027 -
Fodé Sylla Sion Actif 118 / 121 40% 6 20.11.2027 -
Myles Lewis-Skelly Birmingham Actif 151 / 161 40% 4 20.11.2027 -
Chris Rigg Sunderland Actif 136 / 138 40% 4 17.11.2027 -
Trey Nyoni Rotherham United Actif 135 / 137 40% 2 17.11.2027 -
David Valencia Alianza Petrolera Actif 127 / 125 40% 7 16.11.2027 -
Olivier Mambwa Young Boys Actif 109 / 123 40% 5 16.11.2027 -
Ronan Kpakio Cardiff City Actif 119 / 126 40% 5 14.11.2027 -
Matteo Pérez Vinlöf Dinamo Zagreb Actif 128 / 131 40% 2 14.11.2027 -
Juan Morán Godoy Cruz Actif 109 / 117 40% 3 11.11.2027 -
Héctor Fort Real Sociedad Actif 140 / 146 40% 4 11.11.2027 -
Axel Tape Bayer Leverkusen Actif 133 / 129 40% 2 11.11.2027 -
Juma Bah Manchester City Actif 130 / 133 40% 8 07.11.2027 -
Lucas Bergvall Tottenham Actif 151 / 154 40% 7 07.11.2027 -
Giovanni Leoni Bradford City Actif 142 / 145 40% 6 06.11.2027 -
Sebastián Ramírez Jaguares Actif 109 / 113 40% 9 01.11.2027 -
Julián Bazán Philadelphia Union Actif 112 / 111 40% 2 26.10.2027 -
Lewis Miley Chelsea Actif 150 / 157 40% 3 26.10.2027 -
Caleb Yirenkyi Coventry City Actif 143 / 144 40% 3 24.10.2027 -
Bung Meng Freimann Luzern Actif 110 / 122 40% 2 24.10.2027 -
Dmitry Pestryakov Dinamo Moscow Actif 118 / 121 40% 1 22.10.2027 -
Jorge Salinas Racing Santander Actif 129 / 140 40% 2 18.10.2027 -
Ibrahim Maza Bayer Leverkusen Actif 151 / 160 40% 11 17.10.2027 -
Jens Hjertø-Dahl Hull City Actif 127 / 131 40% 4 09.10.2027 -
Halam Loboa Tijuana Actif 120 / 133 40% 1 07.10.2027 -
Kosta Nedeljković Aston Villa Actif 135 / 141 40% 5 05.10.2027 -
Jaydee Canvot AJ Auxerre Actif 139 / 142 40% 1 04.10.2027 -
Teo Rodríguez Pagano River Plate Actif 119 / 120 40% 3 03.10.2027 -
Bence Dárdai VfL Wolfsburg Actif 140 / 149 40% 2 27.09.2027 -
Eliás Montiel Werder Bremen Actif 132 / 141 40% 2 21.09.2027 -
Dejan Radonjić SV Ried Actif 121 / 124 40% 3 18.09.2027 -
Agustín Obregón River Plate Actif 113 / 115 40% 1 16.09.2027 -
Mbekezeli Mbokazi Chicago Fire Actif 131 / 140 40% 5 12.09.2027 -
Johan Manzambi Newcastle United Actif 145 / 150 40% 2 06.09.2027 -
Nazareno Roselli Defensa y Justicia Actif 114 / 115 40% 1 04.09.2027 -
Jonas Harder Basel Actif 113 / 127 40% 3 02.09.2027 -
Ismail Al Suwaidi Al Fujairah Actif 133 / 142 40% 1 31.08.2027 -
Yusi Alavés Actif 133 / 134 40% 4 30.08.2027 -
Tomás Aranda Boca Juniors Actif 111 / 126 40% 1 30.08.2027 -
Jobe Bellingham Köln Actif 144 / 149 40% 7 21.08.2027 -
Nevot Ratner Maccabi Haifa Actif 112 / 127 40% 1 21.08.2027 -
Tobias Slotsager Casertana Actif 115 / 117 40% 1 17.08.2027 -
Matías Gómez Granada Actif 119 / 126 40% 3 16.08.2027 -
Leonardo Mendicino Bari Actif 116 / 123 40% 1 16.08.2027 -
Darryl Bakola Padova Actif 112 / 127 40% 2 15.08.2027 -
Sascha Britschgi Padova Actif 122 / 127 40% 1 15.08.2027 -
Davide Bartesaghi AC Milan Actif 139 / 135 40% 2 13.08.2027 -
Arjan Malić Sturm Graz Actif 118 / 128 40% 1 11.08.2027 -
João Simões Sporting CP Actif 139 / 137 40% 2 08.08.2027 -
Kees Smit AZ Actif 141 / 148 40% 2 08.08.2027 -
Juan Giménez Celta Actif 120 / 132 40% 2 06.08.2027 -
Izan Merino Málaga Actif 128 / 125 40% 3 05.08.2027 -
Jan Bürger Gillingham Actif 118 / 119 40% 2 05.08.2027 -
Toni Tamarit Alverca Actif 122 / 121 40% 1 05.08.2027 -
Daniel Kelly Oxford United Actif 113 / 126 40% 1 01.08.2027 -
Givairo Read Feyenoord Actif 147 / 147 40% 1 29.07.2027 -
Bart Verbruggen Tottenham Actif 157 / 157 40% 1 26.07.2027 -
Josh Keeley Tigres Actif 129 / 134 40% 1 26.07.2027 -
Kauã Santos Eintracht Frankfurt Perdu 145 / 142 40% 1 26.07.2027 -
Michael Cooper Sheffield United Actif 136 / 131 40% 1 21.07.2027 -
Raúl Rangel Sporting CP Actif 141 / 144 40% 1 21.07.2027 -
George Wickens Lincoln City Actif 120 / 127 40% 1 21.07.2027 -
Christ Inao Oulaï Fiorentina Actif 135 / 140 40% 1 20.07.2027 -
Jorrel Hato Chelsea Actif 149 / 150 40% 2 16.06.2027 -
Warren Zaïre-Emery Paris Saint-Germain Actif 159 / 164 40% 2 16.06.2027 -
Ernie Weaver AFC Wimbledon Actif 109 / 119 40% 1 01.06.2027 -
William Gomes Porto Actif 145 / 142 40% 8 30.05.2027 -
Cyriaque Irié VfL Wolfsburg Actif 123 / 131 40% 3 30.05.2027 -
Jan Virgili Club Brugge Actif 131 / 134 40% 4 30.05.2027 -
Rayan Bournemouth Actif 135 / 136 40% 3 29.05.2027 -
Rodrigo Mora AS Roma Actif 138 / 146 40% 2 29.05.2027 -
Olívio Tomé Benfica Actif 113 / 119 40% 4 28.05.2027 -
Shea Lacey Wolverhampton Actif 122 / 126 40% 3 28.05.2027 -
Leo Castledine Middlesbrough Actif 129 / 132 40% 3 28.05.2027 -
Endrick Real Madrid Actif 152 / 156 40% 2 24.05.2027 -
Lander Astiazarán Real Sociedad Actif 103 / 113 40% 2 22.05.2027 -
Othmane Maamma Watford Actif 125 / 127 40% 4 22.05.2027 -
Rayane Bounida Ajax Actif 135 / 137 40% 5 20.05.2027 -
Pablo García Racing Santander Actif 128 / 136 40% 4 20.05.2027 -
Can Uzun Eintracht Frankfurt Actif 139 / 150 40% 4 20.05.2027 -
Jesús Rodríguez Como Actif 142 / 152 40% 4 19.05.2027 -
Jayden Addai Como Actif 132 / 138 40% 4 13.05.2027 -
Assane Diao Lazio Actif 147 / 150 40% 3 13.05.2027 -
Yan Diomandé Real Madrid Actif 154 / 164 40% 4 12.05.2027 -
Ethan Williams Peterborough United Actif 112 / 122 40% 2 24.04.2027 -
Oscar Schwartau Norwich City Actif 123 / 126 40% 1 20.04.2027 -
Jonás Luna Santa Clara Actif 118 / 119 40% 3 18.04.2027 -
Matheus Gonçalves Al-Ahli Actif 126 / 134 40% 1 14.04.2027 -
Senny Mayulu Paris Saint-Germain Actif 144 / 153 40% 1 12.04.2027 -
David Mella Deportivo La Coruña Actif 131 / 136 40% 1 11.04.2027 -
Luís Guilherme Sporting CP Actif 132 / 134 40% 1 09.04.2027 -
Ez Abde Girona Actif 147 / 145 40% 9 18.01.2027 -
Thiago Brentford Actif 151 / 145 40% 4 18.01.2027 -
Karim Adeyemi Barcelona Actif 151 / 158 40% 1 18.01.2027 -
Adnan Courtois KV Oostende Actif 139 / 136 40% 2 01.01.2027 -
Andrés Martín Racing Santander Actif 137 / 132 40% 3 01.01.2027 -
Giacomo Raspadori Atalanta Actif 149 / 147 40% 3 01.01.2027 -
Marvin Keller Bayer Leverkusen Négociation 136 / 137 67% 1 01.01.2027 Approuver
Vangelis Pavlidis Twente Négociation 152 / 152 67% 1 01.01.2027 Approuver
Dmytro Riznyk Cruz Azul Actif 137 / 137 66% 1 01.01.2027 Approuver
Moritz Nicolas Borussia Mönchengladbach Actif 139 / 137 40% 1 31.12.2026 -
Erick Reyes Toluca Actif 142 / 149 40% 1 31.12.2026 -
Hugo Duro Valencia Actif 137 / 138 40% 2 29.12.2026 -
José Manuel López Palmeiras Actif 140 / 129 40% 2 29.12.2026 -
Matheus Cunha Manchester United Actif 160 / 152 40% 5 28.12.2026 -
Jonathan Dubasin Osasuna Actif 143 / 147 40% 4 28.12.2026 -
Georges Mikautadze Villarreal Actif 155 / 153 40% 7 27.12.2026 -
Dango Ouattara Brentford Actif 143 / 142 40% 2 27.12.2026 -
Georginio Rutter Brighton Actif 147 / 144 40% 5 24.12.2026 -
Ousmane Dembélé Paris Saint-Germain Actif 183 / 187 40% 4 24.12.2026 -
Tammy Abraham Aston Villa Actif 139 / 135 40% 7 23.12.2026 -
Jorge De Frutos Rayo Vallecano Actif 151 / 149 40% 3 23.12.2026 -
Cody Gakpo Liverpool Actif 160 / 159 40% 7 22.12.2026 -
Morgan Rogers Chelsea Actif 159 / 159 40% 2 22.12.2026 -
Tim Kleindienst Borussia Mönchengladbach Actif 149 / 157 40% 3 21.12.2026 -
Haris Tabaković Red Bull Salzburg Actif 140 / 129 40% 7 21.12.2026 -
Ademola Lookman Atlético Madrid Actif 164 / 155 40% 5 20.12.2026 -
Mikel Oyarzábal Real Sociedad Actif 160 / 158 40% 3 20.12.2026 -
Gabriel Jesus Barcelona Actif 157 / 156 40% 10 19.12.2026 -
Karim Konaté Red Bull Salzburg Actif 136 / 141 40% 4 19.12.2026 -
João Pedro Chelsea Actif 155 / 156 40% 4 19.12.2026 -
Gabriel Martinelli Brighton Actif 163 / 159 40% 10 18.12.2026 -
Diego Rossi Monterrey Actif 133 / 124 40% 1 18.12.2026 -
Jarrod Bowen West Ham United Actif 156 / 152 40% 3 17.12.2026 -
Taty Castellanos West Ham United Actif 144 / 144 40% 1 16.12.2026 -
Nicolas Jackson Aston Villa Actif 147 / 151 40% 6 15.12.2026 -
Marcus Rashford Manchester United Actif 161 / 162 40% 2 13.12.2026 -
Alejandro Grimaldo Atlético Madrid Actif 164 / 160 40% 2 12.12.2026 -
Oihan Sancet Athletic Bilbao Actif 159 / 152 40% 2 12.12.2026 -
Kai Havertz Arsenal Actif 161 / 159 40% 3 07.12.2026 -
Ismaïla Sarr Crystal Palace Actif 149 / 154 40% 2 05.12.2026 -
Moussa Diaby Bayer Leverkusen Actif 146 / 152 40% 2 04.12.2026 -
Khvicha Kvaratskhelia Paris Saint-Germain Actif 169 / 167 40% 2 04.12.2026 -
Serhou Guirassy Borussia Dortmund Actif 169 / 170 40% 9 02.12.2026 -
Iliman N'Diaye Everton Actif 161 / 154 40% 3 30.11.2026 -
Javi Puado Espanyol Actif 147 / 140 40% 1 30.11.2026 -
Álex Berenguer Athletic Bilbao Actif 155 / 155 40% 2 29.11.2026 -
Álex Baena Atlético Madrid Actif 162 / 158 40% 2 29.11.2026 -
Carlos Vicente Birmingham Actif 145 / 144 40% 1 29.11.2026 -
Borja Mayoral Getafe Actif 144 / 143 40% 1 27.11.2026 -
Mason Mount Manchester United Actif 150 / 146 40% 1 27.11.2026 -
Alexis Mac Allister Liverpool Actif 162 / 160 40% 1 27.11.2026 -
Hugo Álvarez Celta Actif 141 / 143 40% 1 27.11.2026 -
Pedri Barcelona Actif 177 / 176 40% 2 24.11.2026 -
Kiernan Dewsbury-Hall Everton Actif 148 / 150 40% 1 24.11.2026 -
Takefusa Kubo Real Sociedad Actif 152 / 154 40% 1 17.11.2026 -
Iñaki Williams Athletic Bilbao Actif 157 / 158 40% 2 14.11.2026 -
Razvan Balasa Crvena Zvezda Actif 151 / 142 40% 1 14.11.2026 -
Bradley Barcola Liverpool Actif 161 / 156 40% 3 12.11.2026 -
Ángel Correa River Plate Actif 143 / 144 40% 3 07.11.2026 -
Rémi Lemoine Chamois Niortais Actif 156 / 164 40% 1 05.11.2026 -
Martin Ødegaard Arsenal Actif 177 / 172 40% 6 04.11.2026 -
Johnny Cardoso Atlético Madrid Actif 156 / 147 40% 3 04.11.2026 -
Paulinho Palmeiras Actif 141 / 141 40% 4 02.11.2026 -
Marco Asensio Fenerbahce Actif 162 / 149 40% 1 02.11.2026 -
Brahim Díaz Real Madrid Actif 149 / 143 40% 1 01.11.2026 -
Pablo Fornals Betis Actif 148 / 151 40% 1 01.11.2026 -
Ferran Torres Paris Saint-Germain Actif 164 / 165 40% 1 29.10.2026 -
Paulo Dybala AS Roma Actif 150 / 151 40% 1 28.10.2026 -
Fábio Silva Borussia Dortmund Actif 144 / 143 40% 1 27.10.2026 -
Sandro Tonali Tottenham Actif 172 / 167 40% 3 26.10.2026 -
Breel Embolo Atlanta United FC Actif 134 / 143 40% 2 26.10.2026 -
Germán Valera Elche Actif 138 / 130 40% 1 24.10.2026 -
Gonzalo Fulham Actif 143 / 145 40% 1 23.10.2026 -
Barış Alper Yılmaz Galatasaray Actif 148 / 152 40% 1 18.10.2026 -
Joshua Kimmich Bayern Munich Actif 176 / 180 40% 1 14.10.2026 -
Leroy Sané Galatasaray Actif 152 / 154 40% 1 14.10.2026 -
James Maddison Tottenham Actif 157 / 151 40% 1 14.10.2026 -
Kang-In Lee Atlético Madrid Actif 158 / 162 40% 1 11.10.2026 -
Matt O'Riley Brighton Actif 145 / 145 40% 1 11.10.2026 -
Dani Olmo Barcelona Actif 161 / 164 40% 3 08.10.2026 -
Julián Álvarez Atlético Madrid Actif 168 / 176 40% 5 08.10.2026 -
Romelu Castagne KV Oostende Actif 138 / 138 40% 1 08.10.2026 -
Maximilian Beier Borussia Dortmund Actif 152 / 145 40% 3 07.10.2026 -
Rayan Cherki Manchester City Actif 162 / 167 40% 4 02.10.2026 -
Aurélien Tchouaméni Real Madrid Actif 166 / 171 40% 2 30.09.2026 -
Felix Nmecha Borussia Dortmund Actif 158 / 155 40% 1 30.09.2026 -
Dominik Szoboszlai Liverpool Actif 165 / 163 40% 2 28.09.2026 -
Jérémy Doku Manchester City Actif 164 / 160 40% 2 26.09.2026 -
Cole Palmer Chelsea Actif 170 / 171 40% 1 26.09.2026 -
Bruno Guimarães Arsenal Actif 170 / 170 40% 1 26.09.2026 -
Antoine Semenyo Manchester City Actif 154 / 151 40% 2 22.09.2026 -
Rodrygo Real Madrid Actif 167 / 166 40% 3 21.09.2026 -
Jean-Philippe Mateta Crystal Palace Actif 152 / 152 40% 1 17.09.2026 -
Viktor Gyökeres Arsenal Actif 153 / 155 40% 4 16.09.2026 -
Florian Wirtz Liverpool Actif 169 / 173 40% 1 13.09.2026 -
Jeremie Frimpong Liverpool Actif 156 / 158 40% 1 08.09.2026 -
Ismael Saibari Bayern Munich Actif 150 / 145 40% 1 05.09.2026 -
Vinícius Júnior Arsenal Actif 175 / 175 40% 1 17.08.2026 -
Kostantis Tzolakis Hull City Actif 138 / 142 40% 1 02.08.2026 -
Augusto Batalla Rayo Vallecano Actif 138 / 143 40% 1 02.08.2026 -
Robin Zentner Mainz 05 Actif 138 / 133 40% 1 02.08.2026 -